KLFT/LFT METAR and TAF weather

Enter ICAO airport designator
Station Type Date Time Source
KLFT METAR 2021/08/04 18:53 UTC NOAA

KLFT 041853Z 04010KT 9SM FEW037 32/23 A2998 RMK AO2 SLP151 T03170228


Station Type Date Time Source
KLFT Decoded METAR 2021/08/04 18:53 UTC NOAA

LAFAYETTE REGIONAL AIRPORT, LA, United States (KLFT) 30-12N 092-00W 11M
Aug 04, 2021 - 02:53 PM EDT / 2021.08.04 1853 UTC
Wind: from the NE (040 degrees) at 12 MPH (10 KT):0
Visibility: 9 mile(s):0
Sky conditions: mostly clear
Temperature: 89.1 F (31.7 C)
Heat index: 97.0 F (36.1 C):1
Dew Point: 73.0 F (22.8 C)
Relative Humidity: 59%
Pressure (altimeter): 29.98 in. Hg (1015 hPa)
ob: KLFT 041853Z 04010KT 9SM FEW037 32/23 A2998 RMK AO2 SLP151 T03170228
cycle: 19

Station Type Date Time Source
KLFT TAF 2021/08/04 18:36 UTC NOAA

TAF KLFT 041734Z 0418/0518 06008KT P6SM SCT035
FM050100 05003KT P6SM SKC
FM051500 06006KT P6SM FEW060

Example: see airport list